sensor_id;sensor_type;location;lat;lon;timestamp;temperature;humidity
22379;DHT22;11357;49.990;7.370;2023-04-15T00:00:37;7.00;70.30
22379;DHT22;11357;49.990;7.370;2023-04-15T00:03:03;7.00;70.40
22379;DHT22;11357;49.990;7.370;2023-04-15T00:05:30;7.00;70.30
22379;DHT22;11357;49.990;7.370;2023-04-15T00:07:56;7.00;70.10
22379;DHT22;11357;49.990;7.370;2023-04-15T00:10:23;7.00;70.10
22379;DHT22;11357;49.990;7.370;2023-04-15T00:12:49;7.00;70.10
22379;DHT22;11357;49.990;7.370;2023-04-15T00:15:15;7.00;70.10
22379;DHT22;11357;49.990;7.370;2023-04-15T00:17:41;7.00;70.10
22379;DHT22;11357;49.990;7.370;2023-04-15T00:20:07;7.00;70.10
22379;DHT22;11357;49.990;7.370;2023-04-15T00:22:33;7.00;70.10
22379;DHT22;11357;49.990;7.370;2023-04-15T00:24:59;6.90;70.20
22379;DHT22;11357;49.990;7.370;2023-04-15T00:27:24;6.90;70.20
22379;DHT22;11357;49.990;7.370;2023-04-15T00:29:50;6.90;70.30
22379;DHT22;11357;49.990;7.370;2023-04-15T00:32:16;6.90;70.40
22379;DHT22;11357;49.990;7.370;2023-04-15T00:34:41;6.90;70.60
22379;DHT22;11357;49.990;7.370;2023-04-15T00:37:08;6.80;70.60
22379;DHT22;11357;49.990;7.370;2023-04-15T00:39:35;6.90;70.80
22379;DHT22;11357;49.990;7.370;2023-04-15T00:42:02;6.80;70.90
22379;DHT22;11357;49.990;7.370;2023-04-15T00:44:28;6.70;71.20
22379;DHT22;11357;49.990;7.370;2023-04-15T00:46:54;6.70;71.30
22379;DHT22;11357;49.990;7.370;2023-04-15T00:49:20;6.70;71.30
22379;DHT22;11357;49.990;7.370;2023-04-15T00:51:45;6.70;71.30
22379;DHT22;11357;49.990;7.370;2023-04-15T00:54:11;6.60;71.20
22379;DHT22;11357;49.990;7.370;2023-04-15T00:56:37;6.50;71.00
22379;DHT22;11357;49.990;7.370;2023-04-15T00:59:04;6.50;71.10
22379;DHT22;11357;49.990;7.370;2023-04-15T01:01:34;6.50;71.20
22379;DHT22;11357;49.990;7.370;2023-04-15T01:04:01;6.40;71.10
22379;DHT22;11357;49.990;7.370;2023-04-15T01:06:26;6.40;71.10
22379;DHT22;11357;49.990;7.370;2023-04-15T01:08:53;6.40;71.10
22379;DHT22;11357;49.990;7.370;2023-04-15T01:11:19;6.30;71.10
22379;DHT22;11357;49.990;7.370;2023-04-15T01:13:46;6.20;71.20
22379;DHT22;11357;49.990;7.370;2023-04-15T01:16:13;6.10;71.30
22379;DHT22;11357;49.990;7.370;2023-04-15T01:18:39;6.10;71.40
22379;DHT22;11357;49.990;7.370;2023-04-15T01:21:05;6.00;71.40
22379;DHT22;11357;49.990;7.370;2023-04-15T01:23:34;5.90;71.40
22379;DHT22;11357;49.990;7.370;2023-04-15T01:26:01;5.80;71.60
22379;DHT22;11357;49.990;7.370;2023-04-15T01:28:28;5.80;71.90
22379;DHT22;11357;49.990;7.370;2023-04-15T01:31:10;5.70;72.10
22379;DHT22;11357;49.990;7.370;2023-04-15T01:33:37;5.60;72.60
22379;DHT22;11357;49.990;7.370;2023-04-15T01:36:04;5.60;72.60
22379;DHT22;11357;49.990;7.370;2023-04-15T01:38:31;5.60;72.90
22379;DHT22;11357;49.990;7.370;2023-04-15T01:40:57;5.50;72.90
22379;DHT22;11357;49.990;7.370;2023-04-15T01:43:24;5.50;73.10
22379;DHT22;11357;49.990;7.370;2023-04-15T01:45:49;5.60;73.40
22379;DHT22;11357;49.990;7.370;2023-04-15T01:48:15;5.60;73.30
22379;DHT22;11357;49.990;7.370;2023-04-15T01:50:42;5.60;73.30
22379;DHT22;11357;49.990;7.370;2023-04-15T01:53:08;5.60;73.10
22379;DHT22;11357;49.990;7.370;2023-04-15T01:55:34;5.70;73.10
22379;DHT22;11357;49.990;7.370;2023-04-15T01:57:59;5.60;72.90
22379;DHT22;11357;49.990;7.370;2023-04-15T02:00:25;5.60;72.80
22379;DHT22;11357;49.990;7.370;2023-04-15T02:02:51;5.50;72.80
22379;DHT22;11357;49.990;7.370;2023-04-15T02:05:17;5.40;72.90
22379;DHT22;11357;49.990;7.370;2023-04-15T02:07:44;5.20;73.10
22379;DHT22;11357;49.990;7.370;2023-04-15T02:10:10;5.20;73.30
22379;DHT22;11357;49.990;7.370;2023-04-15T02:12:37;5.10;73.50
22379;DHT22;11357;49.990;7.370;2023-04-15T02:15:03;5.10;73.60
22379;DHT22;11357;49.990;7.370;2023-04-15T02:17:29;5.10;73.70
22379;DHT22;11357;49.990;7.370;2023-04-15T02:19:55;5.20;73.70
22379;DHT22;11357;49.990;7.370;2023-04-15T02:22:21;5.20;73.70
22379;DHT22;11357;49.990;7.370;2023-04-15T02:24:47;5.20;73.80
22379;DHT22;11357;49.990;7.370;2023-04-15T02:27:16;5.20;74.00
22379;DHT22;11357;49.990;7.370;2023-04-15T02:29:45;5.30;74.20
22379;DHT22;11357;49.990;7.370;2023-04-15T02:32:12;5.30;74.10
22379;DHT22;11357;49.990;7.370;2023-04-15T02:34:39;5.30;74.00
22379;DHT22;11357;49.990;7.370;2023-04-15T02:37:10;5.30;74.00
22379;DHT22;11357;49.990;7.370;2023-04-15T02:39:36;5.30;74.10
22379;DHT22;11357;49.990;7.370;2023-04-15T02:42:02;5.30;74.20
22379;DHT22;11357;49.990;7.370;2023-04-15T02:44:29;5.30;74.20
22379;DHT22;11357;49.990;7.370;2023-04-15T02:46:55;5.30;74.30
22379;DHT22;11357;49.990;7.370;2023-04-15T02:49:22;5.30;74.20
22379;DHT22;11357;49.990;7.370;2023-04-15T02:51:48;5.30;74.20
22379;DHT22;11357;49.990;7.370;2023-04-15T02:54:23;5.30;74.20
22379;DHT22;11357;49.990;7.370;2023-04-15T02:56:49;5.30;74.20
22379;DHT22;11357;49.990;7.370;2023-04-15T02:59:15;5.20;74.00
22379;DHT22;11357;49.990;7.370;2023-04-15T03:01:41;5.20;74.00
22379;DHT22;11357;49.990;7.370;2023-04-15T03:04:06;5.20;74.00
22379;DHT22;11357;49.990;7.370;2023-04-15T03:06:33;5.20;74.00
22379;DHT22;11357;49.990;7.370;2023-04-15T03:08:59;5.20;74.00
22379;DHT22;11357;49.990;7.370;2023-04-15T03:11:27;5.20;74.00
22379;DHT22;11357;49.990;7.370;2023-04-15T03:13:53;5.10;74.00
22379;DHT22;11357;49.990;7.370;2023-04-15T03:16:19;5.00;74.10
22379;DHT22;11357;49.990;7.370;2023-04-15T03:18:45;4.90;74.20
22379;DHT22;11357;49.990;7.370;2023-04-15T03:21:11;4.90;74.30
22379;DHT22;11357;49.990;7.370;2023-04-15T03:23:36;5.00;74.40
22379;DHT22;11357;49.990;7.370;2023-04-15T03:26:03;5.00;74.30
22379;DHT22;11357;49.990;7.370;2023-04-15T03:28:29;5.00;74.30
22379;DHT22;11357;49.990;7.370;2023-04-15T03:30:55;5.00;74.30
22379;DHT22;11357;49.990;7.370;2023-04-15T03:33:21;5.00;74.30
22379;DHT22;11357;49.990;7.370;2023-04-15T03:35:46;5.00;74.30
22379;DHT22;11357;49.990;7.370;2023-04-15T03:38:12;5.00;74.30
22379;DHT22;11357;49.990;7.370;2023-04-15T03:40:39;4.90;74.30
22379;DHT22;11357;49.990;7.370;2023-04-15T03:43:05;4.90;74.40
22379;DHT22;11357;49.990;7.370;2023-04-15T03:45:32;4.90;74.50
22379;DHT22;11357;49.990;7.370;2023-04-15T03:47:57;4.90;74.50
22379;DHT22;11357;49.990;7.370;2023-04-15T03:50:23;4.90;74.50
22379;DHT22;11357;49.990;7.370;2023-04-15T03:52:49;4.90;74.60
22379;DHT22;11357;49.990;7.370;2023-04-15T03:55:15;4.90;74.70
22379;DHT22;11357;49.990;7.370;2023-04-15T03:57:41;4.80;74.70
22379;DHT22;11357;49.990;7.370;2023-04-15T04:00:07;4.90;74.90
22379;DHT22;11357;49.990;7.370;2023-04-15T04:02:34;4.90;74.90
22379;DHT22;11357;49.990;7.370;2023-04-15T04:05:00;4.90;74.90
22379;DHT22;11357;49.990;7.370;2023-04-15T04:07:25;4.90;74.90
22379;DHT22;11357;49.990;7.370;2023-04-15T04:09:51;4.80;74.80
22379;DHT22;11357;49.990;7.370;2023-04-15T04:12:17;4.80;74.90
22379;DHT22;11357;49.990;7.370;2023-04-15T04:14:42;4.80;74.90
22379;DHT22;11357;49.990;7.370;2023-04-15T04:17:08;4.80;75.00
22379;DHT22;11357;49.990;7.370;2023-04-15T04:19:34;4.70;74.90
22379;DHT22;11357;49.990;7.370;2023-04-15T04:21:59;4.70;74.90
22379;DHT22;11357;49.990;7.370;2023-04-15T04:24:25;4.70;74.90
22379;DHT22;11357;49.990;7.370;2023-04-15T04:26:51;4.70;74.90
22379;DHT22;11357;49.990;7.370;2023-04-15T04:29:17;4.50;74.90
22379;DHT22;11357;49.990;7.370;2023-04-15T04:31:42;4.50;75.20
22379;DHT22;11357;49.990;7.370;2023-04-15T04:34:08;4.40;75.50
22379;DHT22;11357;49.990;7.370;2023-04-15T04:36:33;4.30;75.70
22379;DHT22;11357;49.990;7.370;2023-04-15T04:38:59;4.30;75.80
22379;DHT22;11357;49.990;7.370;2023-04-15T04:41:26;4.30;75.90
22379;DHT22;11357;49.990;7.370;2023-04-15T04:43:51;4.30;76.10
22379;DHT22;11357;49.990;7.370;2023-04-15T04:46:17;4.30;76.10
22379;DHT22;11357;49.990;7.370;2023-04-15T04:48:43;4.30;76.20
22379;DHT22;11357;49.990;7.370;2023-04-15T04:51:09;4.40;76.30
22379;DHT22;11357;49.990;7.370;2023-04-15T04:53:35;4.40;76.80
22379;DHT22;11357;49.990;7.370;2023-04-15T04:56:02;4.40;76.00
22379;DHT22;11357;49.990;7.370;2023-04-15T04:58:27;4.50;76.00
22379;DHT22;11357;49.990;7.370;2023-04-15T05:00:53;4.50;75.90
22379;DHT22;11357;49.990;7.370;2023-04-15T05:03:19;4.50;75.80
22379;DHT22;11357;49.990;7.370;2023-04-15T05:05:45;4.50;75.80
22379;DHT22;11357;49.990;7.370;2023-04-15T05:08:10;4.50;75.80
22379;DHT22;11357;49.990;7.370;2023-04-15T05:10:36;4.50;75.70
22379;DHT22;11357;49.990;7.370;2023-04-15T05:13:02;4.50;75.80
22379;DHT22;11357;49.990;7.370;2023-04-15T05:15:27;4.50;75.80
22379;DHT22;11357;49.990;7.370;2023-04-15T05:17:53;4.60;75.80
22379;DHT22;11357;49.990;7.370;2023-04-15T05:20:19;4.60;75.80
22379;DHT22;11357;49.990;7.370;2023-04-15T05:22:45;4.60;75.80
22379;DHT22;11357;49.990;7.370;2023-04-15T05:25:10;4.70;75.80
22379;DHT22;11357;49.990;7.370;2023-04-15T05:27:36;4.80;75.80
22379;DHT22;11357;49.990;7.370;2023-04-15T05:30:02;4.90;75.80
22379;DHT22;11357;49.990;7.370;2023-04-15T05:32:28;5.00;75.80
22379;DHT22;11357;49.990;7.370;2023-04-15T05:34:53;5.10;75.70
22379;DHT22;11357;49.990;7.370;2023-04-15T05:37:19;5.20;75.60
22379;DHT22;11357;49.990;7.370;2023-04-15T05:39:48;5.40;75.50
22379;DHT22;11357;49.990;7.370;2023-04-15T05:42:14;5.50;75.50
22379;DHT22;11357;49.990;7.370;2023-04-15T05:44:40;5.70;75.40
22379;DHT22;11357;49.990;7.370;2023-04-15T05:47:06;5.80;75.40
22379;DHT22;11357;49.990;7.370;2023-04-15T05:49:33;6.00;75.50
22379;DHT22;11357;49.990;7.370;2023-04-15T05:51:58;6.20;75.50
22379;DHT22;11357;49.990;7.370;2023-04-15T05:54:24;6.40;75.30
22379;DHT22;11357;49.990;7.370;2023-04-15T05:56:50;6.70;75.30
22379;DHT22;11357;49.990;7.370;2023-04-15T05:59:16;6.90;75.00
22379;DHT22;11357;49.990;7.370;2023-04-15T06:01:42;7.10;74.70
22379;DHT22;11357;49.990;7.370;2023-04-15T06:04:08;7.30;74.50
22379;DHT22;11357;49.990;7.370;2023-04-15T06:06:34;7.40;74.40
22379;DHT22;11357;49.990;7.370;2023-04-15T06:08:59;7.50;74.20
22379;DHT22;11357;49.990;7.370;2023-04-15T06:11:25;7.70;74.00
22379;DHT22;11357;49.990;7.370;2023-04-15T06:13:51;7.70;73.90
22379;DHT22;11357;49.990;7.370;2023-04-15T06:16:17;7.80;73.80
22379;DHT22;11357;49.990;7.370;2023-04-15T06:18:42;7.90;73.70
22379;DHT22;11357;49.990;7.370;2023-04-15T06:21:09;8.10;73.60
22379;DHT22;11357;49.990;7.370;2023-04-15T06:23:35;8.10;73.40
22379;DHT22;11357;49.990;7.370;2023-04-15T06:26:01;8.10;73.10
22379;DHT22;11357;49.990;7.370;2023-04-15T06:28:27;8.00;73.20
22379;DHT22;11357;49.990;7.370;2023-04-15T06:30:53;8.00;73.70
22379;DHT22;11357;49.990;7.370;2023-04-15T06:33:19;8.00;73.80
22379;DHT22;11357;49.990;7.370;2023-04-15T06:35:45;8.20;73.90
22379;DHT22;11357;49.990;7.370;2023-04-15T06:38:11;8.40;74.00
22379;DHT22;11357;49.990;7.370;2023-04-15T06:40:37;8.50;74.00
22379;DHT22;11357;49.990;7.370;2023-04-15T06:43:03;8.70;73.90
22379;DHT22;11357;49.990;7.370;2023-04-15T06:45:29;8.90;73.80
22379;DHT22;11357;49.990;7.370;2023-04-15T06:47:55;9.20;73.90
22379;DHT22;11357;49.990;7.370;2023-04-15T06:50:21;9.50;73.70
22379;DHT22;11357;49.990;7.370;2023-04-15T06:52:47;9.70;73.40
22379;DHT22;11357;49.990;7.370;2023-04-15T06:55:13;10.00;73.10
22379;DHT22;11357;49.990;7.370;2023-04-15T06:57:39;10.20;72.80
22379;DHT22;11357;49.990;7.370;2023-04-15T07:00:05;10.50;72.40
22379;DHT22;11357;49.990;7.370;2023-04-15T07:02:32;10.70;72.10
22379;DHT22;11357;49.990;7.370;2023-04-15T07:04:57;10.90;71.70
22379;DHT22;11357;49.990;7.370;2023-04-15T07:07:23;11.10;71.40
22379;DHT22;11357;49.990;7.370;2023-04-15T07:09:50;11.30;71.10
22379;DHT22;11357;49.990;7.370;2023-04-15T07:12:18;11.60;71.10
22379;DHT22;11357;49.990;7.370;2023-04-15T07:14:44;11.80;70.70
22379;DHT22;11357;49.990;7.370;2023-04-15T07:17:09;12.10;70.30
22379;DHT22;11357;49.990;7.370;2023-04-15T07:19:36;12.30;69.90
22379;DHT22;11357;49.990;7.370;2023-04-15T07:22:02;12.50;69.30
22379;DHT22;11357;49.990;7.370;2023-04-15T07:24:28;12.70;68.50
22379;DHT22;11357;49.990;7.370;2023-04-15T07:26:54;13.00;67.80
22379;DHT22;11357;49.990;7.370;2023-04-15T07:29:24;13.10;67.70
22379;DHT22;11357;49.990;7.370;2023-04-15T07:31:49;13.40;67.50
22379;DHT22;11357;49.990;7.370;2023-04-15T07:34:15;13.60;67.30
22379;DHT22;11357;49.990;7.370;2023-04-15T07:36:41;13.90;67.30
22379;DHT22;11357;49.990;7.370;2023-04-15T07:39:07;14.10;67.10
22379;DHT22;11357;49.990;7.370;2023-04-15T07:41:33;14.40;66.80
22379;DHT22;11357;49.990;7.370;2023-04-15T07:43:59;14.70;66.30
22379;DHT22;11357;49.990;7.370;2023-04-15T07:46:25;15.00;65.40
22379;DHT22;11357;49.990;7.370;2023-04-15T07:48:52;15.30;64.70
22379;DHT22;11357;49.990;7.370;2023-04-15T07:51:21;15.50;63.90
22379;DHT22;11357;49.990;7.370;2023-04-15T07:53:48;15.70;63.40
22379;DHT22;11357;49.990;7.370;2023-04-15T07:56:13;15.90;63.00
22379;DHT22;11357;49.990;7.370;2023-04-15T07:58:39;16.10;62.40
22379;DHT22;11357;49.990;7.370;2023-04-15T08:01:05;16.40;61.70
22379;DHT22;11357;49.990;7.370;2023-04-15T08:03:31;16.60;61.30
22379;DHT22;11357;49.990;7.370;2023-04-15T08:05:57;16.70;60.40
22379;DHT22;11357;49.990;7.370;2023-04-15T08:08:23;16.70;60.10
22379;DHT22;11357;49.990;7.370;2023-04-15T08:10:49;16.60;60.40
22379;DHT22;11357;49.990;7.370;2023-04-15T08:13:14;16.40;58.70
22379;DHT22;11357;49.990;7.370;2023-04-15T08:15:40;16.10;58.10
22379;DHT22;11357;49.990;7.370;2023-04-15T08:18:06;15.90;57.90
22379;DHT22;11357;49.990;7.370;2023-04-15T08:20:32;15.80;57.20
22379;DHT22;11357;49.990;7.370;2023-04-15T08:22:58;15.70;56.80
22379;DHT22;11357;49.990;7.370;2023-04-15T08:25:23;15.70;56.50
22379;DHT22;11357;49.990;7.370;2023-04-15T08:27:49;15.70;56.10
22379;DHT22;11357;49.990;7.370;2023-04-15T08:30:15;15.70;55.50
22379;DHT22;11357;49.990;7.370;2023-04-15T08:32:50;15.80;55.30
22379;DHT22;11357;49.990;7.370;2023-04-15T08:35:15;15.90;54.90
22379;DHT22;11357;49.990;7.370;2023-04-15T08:37:41;16.20;54.20
22379;DHT22;11357;49.990;7.370;2023-04-15T08:40:07;16.40;53.60
22379;DHT22;11357;49.990;7.370;2023-04-15T08:42:43;16.60;52.90
22379;DHT22;11357;49.990;7.370;2023-04-15T08:45:09;16.80;52.30
22379;DHT22;11357;49.990;7.370;2023-04-15T08:47:38;17.00;51.60
22379;DHT22;11357;49.990;7.370;2023-04-15T08:50:05;17.20;50.80
22379;DHT22;11357;49.990;7.370;2023-04-15T08:52:33;17.40;49.70
22379;DHT22;11357;49.990;7.370;2023-04-15T08:55:01;17.50;49.00
22379;DHT22;11357;49.990;7.370;2023-04-15T08:57:28;17.60;48.40
22379;DHT22;11357;49.990;7.370;2023-04-15T08:59:56;17.50;48.20
22379;DHT22;11357;49.990;7.370;2023-04-15T09:02:25;17.40;48.20
22379;DHT22;11357;49.990;7.370;2023-04-15T09:04:52;17.40;48.80
22379;DHT22;11357;49.990;7.370;2023-04-15T09:07:18;17.40;48.80
22379;DHT22;11357;49.990;7.370;2023-04-15T09:09:43;17.30;49.00
22379;DHT22;11357;49.990;7.370;2023-04-15T09:12:10;17.20;49.60
22379;DHT22;11357;49.990;7.370;2023-04-15T09:14:38;17.00;50.40
22379;DHT22;11357;49.990;7.370;2023-04-15T09:17:05;16.90;51.50
22379;DHT22;11357;49.990;7.370;2023-04-15T09:19:34;16.80;52.10
22379;DHT22;11357;49.990;7.370;2023-04-15T09:22:01;16.70;52.70
22379;DHT22;11357;49.990;7.370;2023-04-15T09:24:35;16.60;52.70
22379;DHT22;11357;49.990;7.370;2023-04-15T09:27:02;16.50;52.80
22379;DHT22;11357;49.990;7.370;2023-04-15T09:29:28;16.40;53.30
22379;DHT22;11357;49.990;7.370;2023-04-15T09:31:53;16.50;53.50
22379;DHT22;11357;49.990;7.370;2023-04-15T09:34:19;16.40;53.20
22379;DHT22;11357;49.990;7.370;2023-04-15T09:36:55;16.40;53.90
22379;DHT22;11357;49.990;7.370;2023-04-15T09:39:21;16.40;54.30
22379;DHT22;11357;49.990;7.370;2023-04-15T09:42:08;16.70;54.40
22379;DHT22;11357;49.990;7.370;2023-04-15T09:44:34;17.10;54.50
22379;DHT22;11357;49.990;7.370;2023-04-15T09:46:59;17.40;53.50
22379;DHT22;11357;49.990;7.370;2023-04-15T09:49:26;17.50;53.10
22379;DHT22;11357;49.990;7.370;2023-04-15T09:51:57;17.50;52.90
22379;DHT22;11357;49.990;7.370;2023-04-15T09:54:24;17.30;53.20
22379;DHT22;11357;49.990;7.370;2023-04-15T09:56:49;17.00;53.20
22379;DHT22;11357;49.990;7.370;2023-04-15T09:59:15;16.70;53.50
22379;DHT22;11357;49.990;7.370;2023-04-15T10:01:41;16.60;54.10
22379;DHT22;11357;49.990;7.370;2023-04-15T10:04:08;16.60;54.40
22379;DHT22;11357;49.990;7.370;2023-04-15T10:06:34;16.50;54.40
22379;DHT22;11357;49.990;7.370;2023-04-15T10:09:00;16.50;54.70
22379;DHT22;11357;49.990;7.370;2023-04-15T10:11:28;16.40;54.80
22379;DHT22;11357;49.990;7.370;2023-04-15T10:13:55;16.40;54.60
22379;DHT22;11357;49.990;7.370;2023-04-15T10:16:24;16.30;54.60
22379;DHT22;11357;49.990;7.370;2023-04-15T10:18:54;16.10;54.40
22379;DHT22;11357;49.990;7.370;2023-04-15T10:21:21;16.10;54.80
22379;DHT22;11357;49.990;7.370;2023-04-15T10:23:48;16.10;54.30
22379;DHT22;11357;49.990;7.370;2023-04-15T10:26:15;16.00;53.80
22379;DHT22;11357;49.990;7.370;2023-04-15T10:28:45;16.30;54.00
22379;DHT22;11357;49.990;7.370;2023-04-15T10:31:14;16.50;54.20
22379;DHT22;11357;49.990;7.370;2023-04-15T10:33:41;16.70;53.60
22379;DHT22;11357;49.990;7.370;2023-04-15T10:36:07;17.10;52.70
22379;DHT22;11357;49.990;7.370;2023-04-15T10:38:40;17.30;52.50
22379;DHT22;11357;49.990;7.370;2023-04-15T10:41:21;17.40;52.40
22379;DHT22;11357;49.990;7.370;2023-04-15T10:43:54;17.40;51.40
22379;DHT22;11357;49.990;7.370;2023-04-15T10:46:22;17.60;50.60
22379;DHT22;11357;49.990;7.370;2023-04-15T10:48:52;17.90;50.60
22379;DHT22;11357;49.990;7.370;2023-04-15T10:51:29;18.20;50.60
22379;DHT22;11357;49.990;7.370;2023-04-15T10:54:00;18.40;49.90
22379;DHT22;11357;49.990;7.370;2023-04-15T10:56:29;18.90;49.80
22379;DHT22;11357;49.990;7.370;2023-04-15T10:58:58;19.30;50.00
22379;DHT22;11357;49.990;7.370;2023-04-15T11:01:53;19.60;49.00
22379;DHT22;11357;49.990;7.370;2023-04-15T11:04:56;19.60;47.70
22379;DHT22;11357;49.990;7.370;2023-04-15T11:07:39;19.90;46.20
22379;DHT22;11357;49.990;7.370;2023-04-15T11:12:51;20.10;45.40
22379;DHT22;11357;49.990;7.370;2023-04-15T11:15:39;20.10;43.10
22379;DHT22;11357;49.990;7.370;2023-04-15T11:18:22;20.20;43.40
22379;DHT22;11357;49.990;7.370;2023-04-15T11:20:51;20.30;41.30
22379;DHT22;11357;49.990;7.370;2023-04-15T11:23:29;20.20;40.40
22379;DHT22;11357;49.990;7.370;2023-04-15T11:25:56;20.10;40.70
22379;DHT22;11357;49.990;7.370;2023-04-15T11:28:31;19.80;40.20
22379;DHT22;11357;49.990;7.370;2023-04-15T11:30:57;19.50;40.30
22379;DHT22;11357;49.990;7.370;2023-04-15T11:33:23;19.20;40.20
22379;DHT22;11357;49.990;7.370;2023-04-15T11:35:51;18.80;41.80
22379;DHT22;11357;49.990;7.370;2023-04-15T11:38:18;18.70;42.60
22379;DHT22;11357;49.990;7.370;2023-04-15T11:40:44;18.80;43.80
22379;DHT22;11357;49.990;7.370;2023-04-15T11:43:11;19.10;43.80
22379;DHT22;11357;49.990;7.370;2023-04-15T11:45:56;19.30;43.40
22379;DHT22;11357;49.990;7.370;2023-04-15T11:48:30;19.40;43.00
22379;DHT22;11357;49.990;7.370;2023-04-15T11:51:04;19.10;42.10
22379;DHT22;11357;49.990;7.370;2023-04-15T11:53:38;18.80;43.00
22379;DHT22;11357;49.990;7.370;2023-04-15T11:56:05;18.60;43.50
22379;DHT22;11357;49.990;7.370;2023-04-15T11:58:33;18.70;44.00
22379;DHT22;11357;49.990;7.370;2023-04-15T12:01:00;19.10;43.20
22379;DHT22;11357;49.990;7.370;2023-04-15T12:03:35;19.50;43.30
22379;DHT22;11357;49.990;7.370;2023-04-15T12:06:05;20.20;43.00
22379;DHT22;11357;49.990;7.370;2023-04-15T12:09:03;20.80;42.20
22379;DHT22;11357;49.990;7.370;2023-04-15T12:11:41;21.30;39.90
22379;DHT22;11357;49.990;7.370;2023-04-15T12:16:46;20.30;40.70
22379;DHT22;11357;49.990;7.370;2023-04-15T12:19:19;19.70;41.50
22379;DHT22;11357;49.990;7.370;2023-04-15T12:21:47;19.40;42.60
22379;DHT22;11357;49.990;7.370;2023-04-15T12:24:13;19.30;42.60
22379;DHT22;11357;49.990;7.370;2023-04-15T12:26:52;19.10;42.20
22379;DHT22;11357;49.990;7.370;2023-04-15T12:29:19;18.60;42.90
22379;DHT22;11357;49.990;7.370;2023-04-15T12:31:53;18.30;44.50
22379;DHT22;11357;49.990;7.370;2023-04-15T12:34:27;18.30;45.20
22379;DHT22;11357;49.990;7.370;2023-04-15T12:36:54;18.30;44.90
22379;DHT22;11357;49.990;7.370;2023-04-15T12:39:24;18.20;44.40
22379;DHT22;11357;49.990;7.370;2023-04-15T12:41:50;18.30;44.60
22379;DHT22;11357;49.990;7.370;2023-04-15T12:44:16;18.40;45.10
22379;DHT22;11357;49.990;7.370;2023-04-15T12:46:41;18.60;45.80
22379;DHT22;11357;49.990;7.370;2023-04-15T12:49:07;19.00;44.40
22379;DHT22;11357;49.990;7.370;2023-04-15T12:51:33;18.80;44.00
22379;DHT22;11357;49.990;7.370;2023-04-15T12:53:59;18.60;44.40
22379;DHT22;11357;49.990;7.370;2023-04-15T12:56:24;18.30;44.20
22379;DHT22;11357;49.990;7.370;2023-04-15T12:58:51;18.20;44.50
22379;DHT22;11357;49.990;7.370;2023-04-15T13:01:17;18.00;44.60
22379;DHT22;11357;49.990;7.370;2023-04-15T13:03:43;18.00;45.40
22379;DHT22;11357;49.990;7.370;2023-04-15T13:06:09;17.90;46.30
22379;DHT22;11357;49.990;7.370;2023-04-15T13:08:34;17.70;46.20
22379;DHT22;11357;49.990;7.370;2023-04-15T13:11:00;17.70;46.00
22379;DHT22;11357;49.990;7.370;2023-04-15T13:13:26;17.50;46.10
22379;DHT22;11357;49.990;7.370;2023-04-15T13:15:52;17.40;46.90
22379;DHT22;11357;49.990;7.370;2023-04-15T13:18:17;17.20;47.10
22379;DHT22;11357;49.990;7.370;2023-04-15T13:20:43;17.00;48.10
22379;DHT22;11357;49.990;7.370;2023-04-15T13:23:09;17.00;48.80
22379;DHT22;11357;49.990;7.370;2023-04-15T13:25:35;17.00;49.10
22379;DHT22;11357;49.990;7.370;2023-04-15T13:28:00;16.80;49.70
22379;DHT22;11357;49.990;7.370;2023-04-15T13:30:26;16.80;50.50
22379;DHT22;11357;49.990;7.370;2023-04-15T13:32:52;16.70;51.20
22379;DHT22;11357;49.990;7.370;2023-04-15T13:35:19;16.60;52.00
22379;DHT22;11357;49.990;7.370;2023-04-15T13:37:46;16.50;52.10
22379;DHT22;11357;49.990;7.370;2023-04-15T13:40:11;16.50;52.20
22379;DHT22;11357;49.990;7.370;2023-04-15T13:42:37;16.40;52.80
22379;DHT22;11357;49.990;7.370;2023-04-15T13:45:03;16.30;52.70
22379;DHT22;11357;49.990;7.370;2023-04-15T13:47:29;16.30;52.90
22379;DHT22;11357;49.990;7.370;2023-04-15T13:49:54;16.30;53.60
22379;DHT22;11357;49.990;7.370;2023-04-15T13:52:21;16.20;54.00
22379;DHT22;11357;49.990;7.370;2023-04-15T13:54:47;16.30;54.20
22379;DHT22;11357;49.990;7.370;2023-04-15T13:57:13;16.40;54.40
22379;DHT22;11357;49.990;7.370;2023-04-15T13:59:39;16.30;54.20
22379;DHT22;11357;49.990;7.370;2023-04-15T14:02:05;16.20;54.50
22379;DHT22;11357;49.990;7.370;2023-04-15T14:04:31;16.20;55.20
22379;DHT22;11357;49.990;7.370;2023-04-15T14:06:57;16.10;55.80
22379;DHT22;11357;49.990;7.370;2023-04-15T14:09:23;16.10;56.30
22379;DHT22;11357;49.990;7.370;2023-04-15T14:11:51;16.00;56.90
22379;DHT22;11357;49.990;7.370;2023-04-15T14:14:17;15.90;57.40
22379;DHT22;11357;49.990;7.370;2023-04-15T14:16:43;15.80;58.00
22379;DHT22;11357;49.990;7.370;2023-04-15T14:19:09;15.80;58.60
22379;DHT22;11357;49.990;7.370;2023-04-15T14:21:34;15.70;59.50
22379;DHT22;11357;49.990;7.370;2023-04-15T14:24:00;15.60;60.00
22379;DHT22;11357;49.990;7.370;2023-04-15T14:26:26;15.50;61.20
22379;DHT22;11357;49.990;7.370;2023-04-15T14:28:51;15.30;62.60
22379;DHT22;11357;49.990;7.370;2023-04-15T14:31:18;15.10;64.20
22379;DHT22;11357;49.990;7.370;2023-04-15T14:33:43;15.10;64.00
22379;DHT22;11357;49.990;7.370;2023-04-15T14:36:09;15.00;64.30
22379;DHT22;11357;49.990;7.370;2023-04-15T14:38:35;14.90;64.50
22379;DHT22;11357;49.990;7.370;2023-04-15T14:41:06;14.70;64.50
22379;DHT22;11357;49.990;7.370;2023-04-15T14:43:32;14.70;65.80
22379;DHT22;11357;49.990;7.370;2023-04-15T14:45:58;14.60;66.20
22379;DHT22;11357;49.990;7.370;2023-04-15T14:48:24;14.60;66.30
22379;DHT22;11357;49.990;7.370;2023-04-15T14:50:50;14.60;66.10
22379;DHT22;11357;49.990;7.370;2023-04-15T14:53:15;14.70;65.60
22379;DHT22;11357;49.990;7.370;2023-04-15T14:55:41;14.70;65.30
22379;DHT22;11357;49.990;7.370;2023-04-15T14:58:07;14.70;65.20
22379;DHT22;11357;49.990;7.370;2023-04-15T15:00:34;14.60;65.00
22379;DHT22;11357;49.990;7.370;2023-04-15T15:03:00;14.50;65.80
22379;DHT22;11357;49.990;7.370;2023-04-15T15:05:26;14.40;66.50
22379;DHT22;11357;49.990;7.370;2023-04-15T15:07:51;14.40;66.50
22379;DHT22;11357;49.990;7.370;2023-04-15T15:10:18;14.30;66.90
22379;DHT22;11357;49.990;7.370;2023-04-15T15:12:44;14.40;67.30
22379;DHT22;11357;49.990;7.370;2023-04-15T15:15:10;14.30;67.40
22379;DHT22;11357;49.990;7.370;2023-04-15T15:17:35;14.30;67.70
22379;DHT22;11357;49.990;7.370;2023-04-15T15:20:01;14.20;67.80
22379;DHT22;11357;49.990;7.370;2023-04-15T15:22:27;14.20;68.20
22379;DHT22;11357;49.990;7.370;2023-04-15T15:24:53;14.30;68.50
22379;DHT22;11357;49.990;7.370;2023-04-15T15:27:19;14.20;68.90
22379;DHT22;11357;49.990;7.370;2023-04-15T15:29:45;14.10;69.00
22379;DHT22;11357;49.990;7.370;2023-04-15T15:32:11;14.00;68.70
22379;DHT22;11357;49.990;7.370;2023-04-15T15:34:37;14.00;69.30
22379;DHT22;11357;49.990;7.370;2023-04-15T15:37:02;14.00;69.60
22379;DHT22;11357;49.990;7.370;2023-04-15T15:39:28;14.00;69.90
22379;DHT22;11357;49.990;7.370;2023-04-15T15:41:54;14.00;69.90